sensor_id;sensor_type;location;lat;lon;timestamp;pressure;altitude;pressure_sealevel;temperature;humidity
41706;BME280;27385;51.096;17.190;2023-02-10T00:01:52;101942.06;;;-1.97;72.61
41706;BME280;27385;51.096;17.190;2023-02-10T00:04:23;101943.79;;;-1.98;72.77
41706;BME280;27385;51.096;17.190;2023-02-10T00:06:54;101945.48;;;-1.98;72.61
41706;BME280;27385;51.096;17.190;2023-02-10T00:09:25;101942.19;;;-2.02;72.67
41706;BME280;27385;51.096;17.190;2023-02-10T00:11:56;101945.27;;;-2.03;72.46
41706;BME280;27385;51.096;17.190;2023-02-10T00:14:29;101947.63;;;-2.06;72.34
41706;BME280;27385;51.096;17.190;2023-02-10T00:17:00;101950.07;;;-2.11;72.20
41706;BME280;27385;51.096;17.190;2023-02-10T00:19:32;101950.68;;;-2.15;72.49
41706;BME280;27385;51.096;17.190;2023-02-10T00:22:03;101947.34;;;-2.20;72.32
41706;BME280;27385;51.096;17.190;2023-02-10T00:24:34;101949.09;;;-2.25;72.38
41706;BME280;27385;51.096;17.190;2023-02-10T00:27:05;101949.16;;;-2.31;72.24
41706;BME280;27385;51.096;17.190;2023-02-10T00:29:36;101956.94;;;-2.35;72.23
41706;BME280;27385;51.096;17.190;2023-02-10T00:32:07;101962.90;;;-2.37;72.37
41706;BME280;27385;51.096;17.190;2023-02-10T00:34:40;101961.77;;;-2.41;72.27
41706;BME280;27385;51.096;17.190;2023-02-10T00:37:10;101958.88;;;-2.47;72.28
41706;BME280;27385;51.096;17.190;2023-02-10T00:39:41;101957.35;;;-2.49;72.52
41706;BME280;27385;51.096;17.190;2023-02-10T00:42:15;101955.34;;;-2.55;72.55
41706;BME280;27385;51.096;17.190;2023-02-10T00:44:45;101954.63;;;-2.55;72.80
41706;BME280;27385;51.096;17.190;2023-02-10T00:47:16;101959.23;;;-2.55;72.73
41706;BME280;27385;51.096;17.190;2023-02-10T00:49:48;101959.77;;;-2.55;73.10
41706;BME280;27385;51.096;17.190;2023-02-10T00:52:19;101956.14;;;-2.59;72.82
41706;BME280;27385;51.096;17.190;2023-02-10T00:54:50;101961.80;;;-2.61;73.12
41706;BME280;27385;51.096;17.190;2023-02-10T00:57:21;101954.69;;;-2.61;73.19
41706;BME280;27385;51.096;17.190;2023-02-10T00:59:52;101957.86;;;-2.62;73.13
41706;BME280;27385;51.096;17.190;2023-02-10T01:02:23;101955.64;;;-2.63;73.29
41706;BME280;27385;51.096;17.190;2023-02-10T01:04:54;101957.85;;;-2.65;73.22
41706;BME280;27385;51.096;17.190;2023-02-10T01:07:26;101953.70;;;-2.68;72.95
41706;BME280;27385;51.096;17.190;2023-02-10T01:09:59;101957.73;;;-2.75;72.66
41706;BME280;27385;51.096;17.190;2023-02-10T01:12:30;101958.61;;;-2.82;72.73
41706;BME280;27385;51.096;17.190;2023-02-10T01:15:01;101956.80;;;-2.88;72.72
41706;BME280;27385;51.096;17.190;2023-02-10T01:17:32;101953.69;;;-2.93;72.84
41706;BME280;27385;51.096;17.190;2023-02-10T01:20:03;101947.95;;;-2.97;72.83
41706;BME280;27385;51.096;17.190;2023-02-10T01:22:35;101947.92;;;-3.01;72.92
41706;BME280;27385;51.096;17.190;2023-02-10T01:25:07;101946.64;;;-3.04;73.01
41706;BME280;27385;51.096;17.190;2023-02-10T01:27:38;101942.92;;;-3.08;72.88
41706;BME280;27385;51.096;17.190;2023-02-10T01:30:11;101941.21;;;-3.08;73.17
41706;BME280;27385;51.096;17.190;2023-02-10T01:32:42;101934.02;;;-3.06;73.33
41706;BME280;27385;51.096;17.190;2023-02-10T01:35:13;101937.05;;;-3.04;73.51
41706;BME280;27385;51.096;17.190;2023-02-10T01:37:44;101941.34;;;-3.04;73.36
41706;BME280;27385;51.096;17.190;2023-02-10T01:40:15;101939.45;;;-3.04;73.39
41706;BME280;27385;51.096;17.190;2023-02-10T01:42:47;101943.33;;;-3.05;73.40
41706;BME280;27385;51.096;17.190;2023-02-10T01:45:20;101936.86;;;-3.08;73.48
41706;BME280;27385;51.096;17.190;2023-02-10T01:47:56;101929.87;;;-3.12;73.34
41706;BME280;27385;51.096;17.190;2023-02-10T01:50:28;101924.42;;;-3.16;73.48
41706;BME280;27385;51.096;17.190;2023-02-10T01:53:01;101926.71;;;-3.18;73.58
41706;BME280;27385;51.096;17.190;2023-02-10T01:55:34;101925.34;;;-3.17;73.68
41706;BME280;27385;51.096;17.190;2023-02-10T01:58:09;101923.22;;;-3.18;73.65
41706;BME280;27385;51.096;17.190;2023-02-10T02:00:41;101919.52;;;-3.19;73.77
41706;BME280;27385;51.096;17.190;2023-02-10T02:03:13;101916.98;;;-3.20;73.78
41706;BME280;27385;51.096;17.190;2023-02-10T02:05:44;101925.89;;;-3.22;73.60
41706;BME280;27385;51.096;17.190;2023-02-10T02:08:18;101927.16;;;-3.30;73.48
41706;BME280;27385;51.096;17.190;2023-02-10T02:10:58;101930.41;;;-3.33;73.71
41706;BME280;27385;51.096;17.190;2023-02-10T02:13:55;101935.23;;;-3.36;73.81
41706;BME280;27385;51.096;17.190;2023-02-10T02:16:38;101946.15;;;-3.39;73.68
41706;BME280;27385;51.096;17.190;2023-02-10T02:19:26;101950.18;;;-3.42;73.72
41706;BME280;27385;51.096;17.190;2023-02-10T02:22:26;101942.98;;;-3.45;73.96
41706;BME280;27385;51.096;17.190;2023-02-10T02:25:22;101938.37;;;-3.48;74.00
41706;BME280;27385;51.096;17.190;2023-02-10T02:28:23;101934.38;;;-3.53;73.64
41706;BME280;27385;51.096;17.190;2023-02-10T02:31:34;101926.55;;;-3.57;73.97
41706;BME280;27385;51.096;17.190;2023-02-10T02:34:15;101931.71;;;-3.59;74.05
41706;BME280;27385;51.096;17.190;2023-02-10T02:36:51;101937.80;;;-3.61;73.92
41706;BME280;27385;51.096;17.190;2023-02-10T02:39:26;101940.77;;;-3.64;73.83
41706;BME280;27385;51.096;17.190;2023-02-10T02:42:18;101945.00;;;-3.68;73.86
41706;BME280;27385;51.096;17.190;2023-02-10T02:44:52;101944.30;;;-3.73;73.69
41706;BME280;27385;51.096;17.190;2023-02-10T02:47:50;101945.00;;;-3.78;74.00
41706;BME280;27385;51.096;17.190;2023-02-10T02:50:28;101941.94;;;-3.81;74.12
41706;BME280;27385;51.096;17.190;2023-02-10T02:53:13;101939.23;;;-3.82;74.13
41706;BME280;27385;51.096;17.190;2023-02-10T02:55:55;101938.65;;;-3.83;74.11
41706;BME280;27385;51.096;17.190;2023-02-10T02:58:37;101935.88;;;-3.84;74.16
41706;BME280;27385;51.096;17.190;2023-02-10T03:01:16;101927.83;;;-3.88;74.18
41706;BME280;27385;51.096;17.190;2023-02-10T03:03:50;101923.77;;;-3.90;74.30
41706;BME280;27385;51.096;17.190;2023-02-10T03:06:22;101924.66;;;-3.91;74.20
41706;BME280;27385;51.096;17.190;2023-02-10T03:08:53;101925.32;;;-3.95;74.27
41706;BME280;27385;51.096;17.190;2023-02-10T03:11:25;101929.50;;;-3.98;74.29
41706;BME280;27385;51.096;17.190;2023-02-10T03:13:56;101931.02;;;-4.02;74.41
41706;BME280;27385;51.096;17.190;2023-02-10T03:16:27;101931.24;;;-4.04;74.47
41706;BME280;27385;51.096;17.190;2023-02-10T03:18:58;101929.98;;;-4.07;74.40
41706;BME280;27385;51.096;17.190;2023-02-10T03:21:30;101933.80;;;-4.10;74.47
41706;BME280;27385;51.096;17.190;2023-02-10T03:24:01;101934.17;;;-4.10;74.72
41706;BME280;27385;51.096;17.190;2023-02-10T03:26:32;101940.71;;;-4.11;74.90
41706;BME280;27385;51.096;17.190;2023-02-10T03:29:04;101942.73;;;-4.11;74.93
41706;BME280;27385;51.096;17.190;2023-02-10T03:31:35;101949.65;;;-4.11;75.05
41706;BME280;27385;51.096;17.190;2023-02-10T03:34:06;101952.56;;;-4.11;75.21
41706;BME280;27385;51.096;17.190;2023-02-10T03:36:37;101953.66;;;-4.10;75.19
41706;BME280;27385;51.096;17.190;2023-02-10T03:39:08;101953.92;;;-4.09;75.25
41706;BME280;27385;51.096;17.190;2023-02-10T03:41:39;101957.39;;;-4.08;75.29
41706;BME280;27385;51.096;17.190;2023-02-10T03:44:10;101960.45;;;-4.07;75.30
41706;BME280;27385;51.096;17.190;2023-02-10T03:46:42;101961.94;;;-4.07;75.43
41706;BME280;27385;51.096;17.190;2023-02-10T03:49:12;101961.47;;;-4.07;75.52
41706;BME280;27385;51.096;17.190;2023-02-10T03:51:44;101960.76;;;-4.07;75.50
41706;BME280;27385;51.096;17.190;2023-02-10T03:54:15;101957.09;;;-4.08;75.49
41706;BME280;27385;51.096;17.190;2023-02-10T03:56:46;101958.90;;;-4.07;75.69
41706;BME280;27385;51.096;17.190;2023-02-10T03:59:17;101963.52;;;-4.06;75.60
41706;BME280;27385;51.096;17.190;2023-02-10T04:01:48;101968.45;;;-4.05;75.65
41706;BME280;27385;51.096;17.190;2023-02-10T04:04:19;101972.83;;;-4.05;75.58
41706;BME280;27385;51.096;17.190;2023-02-10T04:06:50;101974.50;;;-4.04;75.64
41706;BME280;27385;51.096;17.190;2023-02-10T04:09:22;101970.48;;;-4.03;75.63
41706;BME280;27385;51.096;17.190;2023-02-10T04:11:53;101971.88;;;-4.04;75.52
41706;BME280;27385;51.096;17.190;2023-02-10T04:14:24;101969.47;;;-4.04;75.57
41706;BME280;27385;51.096;17.190;2023-02-10T04:16:55;101968.61;;;-4.04;75.58
41706;BME280;27385;51.096;17.190;2023-02-10T04:19:26;101969.87;;;-4.03;75.68
41706;BME280;27385;51.096;17.190;2023-02-10T04:21:57;101971.88;;;-4.04;75.60
41706;BME280;27385;51.096;17.190;2023-02-10T04:24:28;101974.08;;;-4.05;75.59
41706;BME280;27385;51.096;17.190;2023-02-10T04:26:59;101980.48;;;-4.05;75.75
41706;BME280;27385;51.096;17.190;2023-02-10T04:29:30;101983.90;;;-4.05;75.63
41706;BME280;27385;51.096;17.190;2023-02-10T04:32:01;101979.73;;;-4.06;75.55
41706;BME280;27385;51.096;17.190;2023-02-10T04:34:32;101980.88;;;-4.07;75.75
41706;BME280;27385;51.096;17.190;2023-02-10T04:37:03;101979.18;;;-4.06;75.68
41706;BME280;27385;51.096;17.190;2023-02-10T04:39:35;101979.32;;;-4.07;75.64
41706;BME280;27385;51.096;17.190;2023-02-10T04:42:06;101972.88;;;-4.08;75.72
41706;BME280;27385;51.096;17.190;2023-02-10T04:44:37;101975.42;;;-4.10;75.78
41706;BME280;27385;51.096;17.190;2023-02-10T04:47:08;101974.39;;;-4.10;75.93
41706;BME280;27385;51.096;17.190;2023-02-10T04:49:39;101978.86;;;-4.09;75.98
41706;BME280;27385;51.096;17.190;2023-02-10T04:52:10;101980.71;;;-4.10;75.95
41706;BME280;27385;51.096;17.190;2023-02-10T04:54:41;101978.58;;;-4.11;75.87
41706;BME280;27385;51.096;17.190;2023-02-10T04:57:12;101977.24;;;-4.11;75.85
41706;BME280;27385;51.096;17.190;2023-02-10T04:59:43;101982.42;;;-4.12;76.10
41706;BME280;27385;51.096;17.190;2023-02-10T05:02:15;101981.10;;;-4.12;76.13
41706;BME280;27385;51.096;17.190;2023-02-10T05:04:46;101987.27;;;-4.12;76.13
41706;BME280;27385;51.096;17.190;2023-02-10T05:07:17;101985.78;;;-4.12;76.12
41706;BME280;27385;51.096;17.190;2023-02-10T05:09:48;101981.91;;;-4.12;76.04
41706;BME280;27385;51.096;17.190;2023-02-10T05:12:19;101980.09;;;-4.12;76.16
41706;BME280;27385;51.096;17.190;2023-02-10T05:14:50;101978.52;;;-4.13;76.25
41706;BME280;27385;51.096;17.190;2023-02-10T05:17:21;101981.62;;;-4.13;76.25
41706;BME280;27385;51.096;17.190;2023-02-10T05:19:52;101976.05;;;-4.12;76.24
41706;BME280;27385;51.096;17.190;2023-02-10T05:22:23;101975.02;;;-4.12;76.39
41706;BME280;27385;51.096;17.190;2023-02-10T05:24:59;101980.56;;;-4.12;76.48
41706;BME280;27385;51.096;17.190;2023-02-10T05:27:30;101991.33;;;-4.12;76.42
41706;BME280;27385;51.096;17.190;2023-02-10T05:30:01;101989.78;;;-4.11;76.52
41706;BME280;27385;51.096;17.190;2023-02-10T05:32:33;101995.29;;;-4.10;76.68
41706;BME280;27385;51.096;17.190;2023-02-10T05:35:05;101991.33;;;-4.06;76.68
41706;BME280;27385;51.096;17.190;2023-02-10T05:37:36;101990.06;;;-4.03;76.86
41706;BME280;27385;51.096;17.190;2023-02-10T05:40:09;101986.56;;;-3.98;76.91
41706;BME280;27385;51.096;17.190;2023-02-10T05:42:40;101993.10;;;-3.91;76.98
41706;BME280;27385;51.096;17.190;2023-02-10T05:45:12;101995.56;;;-3.85;77.14
41706;BME280;27385;51.096;17.190;2023-02-10T05:47:43;102009.30;;;-3.78;77.33
41706;BME280;27385;51.096;17.190;2023-02-10T05:50:14;102018.93;;;-3.70;77.49
41706;BME280;27385;51.096;17.190;2023-02-10T05:52:46;102021.40;;;-3.61;77.50
41706;BME280;27385;51.096;17.190;2023-02-10T05:55:17;102017.55;;;-3.52;77.46
41706;BME280;27385;51.096;17.190;2023-02-10T05:57:48;102017.23;;;-3.43;77.31
41706;BME280;27385;51.096;17.190;2023-02-10T06:00:21;102019.23;;;-3.34;77.22
41706;BME280;27385;51.096;17.190;2023-02-10T06:02:52;102021.46;;;-3.25;77.25
41706;BME280;27385;51.096;17.190;2023-02-10T06:05:23;102022.80;;;-3.18;77.21
41706;BME280;27385;51.096;17.190;2023-02-10T06:07:54;102023.14;;;-3.12;77.30
41706;BME280;27385;51.096;17.190;2023-02-10T06:10:25;102022.88;;;-3.03;77.24
41706;BME280;27385;51.096;17.190;2023-02-10T06:12:56;102027.98;;;-2.96;77.32
41706;BME280;27385;51.096;17.190;2023-02-10T06:15:27;102030.13;;;-2.91;77.32
41706;BME280;27385;51.096;17.190;2023-02-10T06:17:58;102034.91;;;-2.85;77.25
41706;BME280;27385;51.096;17.190;2023-02-10T06:20:29;102038.79;;;-2.78;77.17
41706;BME280;27385;51.096;17.190;2023-02-10T06:23:00;102041.48;;;-2.71;77.02
41706;BME280;27385;51.096;17.190;2023-02-10T06:25:31;102047.38;;;-2.64;76.92
41706;BME280;27385;51.096;17.190;2023-02-10T06:28:05;102052.92;;;-2.59;76.95
41706;BME280;27385;51.096;17.190;2023-02-10T06:30:36;102050.38;;;-2.53;76.84
41706;BME280;27385;51.096;17.190;2023-02-10T06:33:07;102056.77;;;-2.48;76.89
41706;BME280;27385;51.096;17.190;2023-02-10T06:35:38;102058.89;;;-2.42;76.78
41706;BME280;27385;51.096;17.190;2023-02-10T06:38:09;102061.54;;;-2.37;76.77
41706;BME280;27385;51.096;17.190;2023-02-10T06:40:41;102063.66;;;-2.31;76.70
41706;BME280;27385;51.096;17.190;2023-02-10T06:43:12;102060.77;;;-2.25;76.58
41706;BME280;27385;51.096;17.190;2023-02-10T06:45:43;102058.92;;;-2.19;76.44
41706;BME280;27385;51.096;17.190;2023-02-10T06:48:14;102059.70;;;-2.13;76.35
41706;BME280;27385;51.096;17.190;2023-02-10T06:50:45;102060.39;;;-2.08;76.36
41706;BME280;27385;51.096;17.190;2023-02-10T06:53:16;102060.91;;;-2.03;76.27
41706;BME280;27385;51.096;17.190;2023-02-10T06:55:47;102060.52;;;-1.99;76.19
41706;BME280;27385;51.096;17.190;2023-02-10T06:58:18;102067.10;;;-1.94;76.18
41706;BME280;27385;51.096;17.190;2023-02-10T07:00:49;102065.69;;;-1.89;76.07
41706;BME280;27385;51.096;17.190;2023-02-10T07:03:20;102064.59;;;-1.83;75.90
41706;BME280;27385;51.096;17.190;2023-02-10T07:05:51;102062.91;;;-1.76;75.93
41706;BME280;27385;51.096;17.190;2023-02-10T07:08:22;102063.14;;;-1.70;75.80
41706;BME280;27385;51.096;17.190;2023-02-10T07:10:53;102065.17;;;-1.64;75.77
41706;BME280;27385;51.096;17.190;2023-02-10T07:13:24;102066.73;;;-1.57;75.79
41706;BME280;27385;51.096;17.190;2023-02-10T07:15:55;102064.59;;;-1.53;75.63
41706;BME280;27385;51.096;17.190;2023-02-10T07:18:26;102068.76;;;-1.47;75.35
41706;BME280;27385;51.096;17.190;2023-02-10T07:20:59;102072.89;;;-1.41;75.36
41706;BME280;27385;51.096;17.190;2023-02-10T07:23:30;102079.59;;;-1.35;75.14
41706;BME280;27385;51.096;17.190;2023-02-10T07:26:01;102082.08;;;-1.30;75.12
41706;BME280;27385;51.096;17.190;2023-02-10T07:28:32;102082.46;;;-1.23;75.09
41706;BME280;27385;51.096;17.190;2023-02-10T07:31:04;102081.66;;;-1.18;75.07
41706;BME280;27385;51.096;17.190;2023-02-10T07:33:35;102083.86;;;-1.12;74.82
41706;BME280;27385;51.096;17.190;2023-02-10T07:36:07;102086.44;;;-1.06;74.75
41706;BME280;27385;51.096;17.190;2023-02-10T07:38:38;102087.34;;;-1.00;74.57
41706;BME280;27385;51.096;17.190;2023-02-10T07:41:09;102095.39;;;-0.94;74.44
41706;BME280;27385;51.096;17.190;2023-02-10T07:43:41;102100.54;;;-0.89;74.36
41706;BME280;27385;51.096;17.190;2023-02-10T07:46:12;102104.81;;;-0.84;74.40
41706;BME280;27385;51.096;17.190;2023-02-10T07:48:44;102107.34;;;-0.78;74.40
41706;BME280;27385;51.096;17.190;2023-02-10T07:51:15;102108.85;;;-0.74;74.43
41706;BME280;27385;51.096;17.190;2023-02-10T07:53:46;102105.36;;;-0.70;74.32
41706;BME280;27385;51.096;17.190;2023-02-10T07:56:17;102095.88;;;-0.66;74.29
41706;BME280;27385;51.096;17.190;2023-02-10T07:58:48;102085.91;;;-0.63;74.42
41706;BME280;27385;51.096;17.190;2023-02-10T08:01:19;102082.80;;;-0.59;74.40
41706;BME280;27385;51.096;17.190;2023-02-10T08:03:51;102086.73;;;-0.54;74.50
41706;BME280;27385;51.096;17.190;2023-02-10T08:06:23;102090.56;;;-0.48;74.57
41706;BME280;27385;51.096;17.190;2023-02-10T08:08:54;102092.31;;;-0.42;74.49
41706;BME280;27385;51.096;17.190;2023-02-10T08:11:25;102093.00;;;-0.37;74.37
41706;BME280;27385;51.096;17.190;2023-02-10T08:13:56;102088.69;;;-0.32;74.63
41706;BME280;27385;51.096;17.190;2023-02-10T08:16:27;102090.14;;;-0.27;74.63
41706;BME280;27385;51.096;17.190;2023-02-10T08:18:58;102086.65;;;-0.21;74.90
41706;BME280;27385;51.096;17.190;2023-02-10T08:21:29;102086.64;;;-0.14;74.77
41706;BME280;27385;51.096;17.190;2023-02-10T08:24:01;102086.39;;;-0.07;74.78
41706;BME280;27385;51.096;17.190;2023-02-10T08:26:32;102094.38;;;0.00;74.98
41706;BME280;27385;51.096;17.190;2023-02-10T08:29:04;102096.09;;;0.08;74.84
41706;BME280;27385;51.096;17.190;2023-02-10T08:31:35;102091.25;;;0.13;74.78
41706;BME280;27385;51.096;17.190;2023-02-10T08:34:10;102092.71;;;0.20;74.67
41706;BME280;27385;51.096;17.190;2023-02-10T08:36:43;102091.70;;;0.24;74.81
41706;BME280;27385;51.096;17.190;2023-02-10T08:39:15;102086.38;;;0.29;74.87
41706;BME280;27385;51.096;17.190;2023-02-10T08:41:46;102087.88;;;0.34;74.91
41706;BME280;27385;51.096;17.190;2023-02-10T08:44:17;102092.69;;;0.39;74.89
41706;BME280;27385;51.096;17.190;2023-02-10T08:46:48;102097.40;;;0.44;74.75
41706;BME280;27385;51.096;17.190;2023-02-10T08:49:20;102095.83;;;0.48;74.67
41706;BME280;27385;51.096;17.190;2023-02-10T08:51:54;102098.18;;;0.52;74.79
41706;BME280;27385;51.096;17.190;2023-02-10T08:54:25;102104.92;;;0.56;74.70
41706;BME280;27385;51.096;17.190;2023-02-10T08:56:57;102109.39;;;0.60;74.75
41706;BME280;27385;51.096;17.190;2023-02-10T08:59:29;102111.34;;;0.64;74.84
41706;BME280;27385;51.096;17.190;2023-02-10T09:01:59;102106.88;;;0.69;74.94
41706;BME280;27385;51.096;17.190;2023-02-10T09:04:31;102100.42;;;0.73;74.97
41706;BME280;27385;51.096;17.190;2023-02-10T09:07:02;102096.18;;;0.77;75.10
41706;BME280;27385;51.096;17.190;2023-02-10T09:09:38;102091.55;;;0.83;75.26
41706;BME280;27385;51.096;17.190;2023-02-10T09:12:11;102094.99;;;0.87;75.34
41706;BME280;27385;51.096;17.190;2023-02-10T09:14:42;102097.33;;;0.90;75.56
41706;BME280;27385;51.096;17.190;2023-02-10T09:17:13;102103.38;;;0.95;75.67
41706;BME280;27385;51.096;17.190;2023-02-10T09:19:45;102106.77;;;1.01;75.88
41706;BME280;27385;51.096;17.190;2023-02-10T09:22:15;102109.44;;;1.06;75.88
41706;BME280;27385;51.096;17.190;2023-02-10T09:24:46;102109.63;;;1.12;76.08
41706;BME280;27385;51.096;17.190;2023-02-10T09:27:19;102109.78;;;1.17;76.16
41706;BME280;27385;51.096;17.190;2023-02-10T09:29:50;102117.33;;;1.23;76.27
41706;BME280;27385;51.096;17.190;2023-02-10T09:32:21;102113.84;;;1.27;76.29
41706;BME280;27385;51.096;17.190;2023-02-10T09:34:52;102113.45;;;1.31;76.41
41706;BME280;27385;51.096;17.190;2023-02-10T09:37:24;102109.67;;;1.36;76.49
41706;BME280;27385;51.096;17.190;2023-02-10T09:39:55;102109.50;;;1.42;76.60
41706;BME280;27385;51.096;17.190;2023-02-10T09:42:34;102121.55;;;1.48;76.74
41706;BME280;27385;51.096;17.190;2023-02-10T09:45:15;102123.73;;;1.52;76.70
41706;BME280;27385;51.096;17.190;2023-02-10T09:47:51;102117.43;;;1.57;76.70
41706;BME280;27385;51.096;17.190;2023-02-10T09:50:44;102120.56;;;1.61;76.86
41706;BME280;27385;51.096;17.190;2023-02-10T09:53:21;102127.23;;;1.66;76.87
41706;BME280;27385;51.096;17.190;2023-02-10T09:55:55;102129.33;;;1.70;76.88
41706;BME280;27385;51.096;17.190;2023-02-10T09:58:32;102127.59;;;1.76;77.07
41706;BME280;27385;51.096;17.190;2023-02-10T10:01:12;102130.27;;;1.82;77.13
41706;BME280;27385;51.096;17.190;2023-02-10T10:03:48;102131.40;;;1.90;77.15
41706;BME280;27385;51.096;17.190;2023-02-10T10:06:26;102133.06;;;1.97;77.10
41706;BME280;27385;51.096;17.190;2023-02-10T10:09:04;102136.30;;;2.04;77.06
41706;BME280;27385;51.096;17.190;2023-02-10T10:11:45;102141.02;;;2.11;77.01
41706;BME280;27385;51.096;17.190;2023-02-10T10:14:20;102145.67;;;2.18;77.02
41706;BME280;27385;51.096;17.190;2023-02-10T10:17:14;102147.00;;;2.24;77.01
41706;BME280;27385;51.096;17.190;2023-02-10T10:19:58;102143.39;;;2.31;76.99
41706;BME280;27385;51.096;17.190;2023-02-10T10:22:43;102138.09;;;2.37;76.96
41706;BME280;27385;51.096;17.190;2023-02-10T10:25:33;102141.54;;;2.42;76.91
41706;BME280;27385;51.096;17.190;2023-02-10T10:28:21;102137.80;;;2.46;76.98
41706;BME280;27385;51.096;17.190;2023-02-10T10:30:58;102131.86;;;2.51;76.85
41706;BME280;27385;51.096;17.190;2023-02-10T10:33:35;102126.68;;;2.54;76.80
41706;BME280;27385;51.096;17.190;2023-02-10T10:36:12;102128.91;;;2.56;76.86
41706;BME280;27385;51.096;17.190;2023-02-10T10:38:47;102125.88;;;2.59;76.75
41706;BME280;27385;51.096;17.190;2023-02-10T10:41:22;102122.59;;;2.61;76.86
41706;BME280;27385;51.096;17.190;2023-02-10T10:43:56;102126.02;;;2.65;76.85
41706;BME280;27385;51.096;17.190;2023-02-10T10:46:30;102126.60;;;2.69;76.71
41706;BME280;27385;51.096;17.190;2023-02-10T10:49:05;102129.55;;;2.74;76.73
41706;BME280;27385;51.096;17.190;2023-02-10T10:51:36;102133.16;;;2.79;76.82
41706;BME280;27385;51.096;17.190;2023-02-10T10:54:14;102123.73;;;2.83;76.51
41706;BME280;27385;51.096;17.190;2023-02-10T10:56:49;102114.71;;;2.88;76.62
41706;BME280;27385;51.096;17.190;2023-02-10T10:59:25;102107.98;;;2.93;76.50
41706;BME280;27385;51.096;17.190;2023-02-10T11:01:58;102104.21;;;2.95;76.30
41706;BME280;27385;51.096;17.190;2023-02-10T11:04:30;102107.55;;;2.99;76.43
41706;BME280;27385;51.096;17.190;2023-02-10T11:07:10;102107.05;;;3.05;76.40
41706;BME280;27385;51.096;17.190;2023-02-10T11:09:48;102104.95;;;3.08;76.09
41706;BME280;27385;51.096;17.190;2023-02-10T11:12:23;102104.94;;;3.09;75.74
41706;BME280;27385;51.096;17.190;2023-02-10T11:14:55;102105.97;;;3.09;75.64
41706;BME280;27385;51.096;17.190;2023-02-10T11:17:32;102096.90;;;3.08;75.74
41706;BME280;27385;51.096;17.190;2023-02-10T11:20:18;102095.79;;;3.09;75.51
41706;BME280;27385;51.096;17.190;2023-02-10T11:22:58;102093.58;;;3.09;75.36
41706;BME280;27385;51.096;17.190;2023-02-10T11:25:32;102094.86;;;3.08;75.49
41706;BME280;27385;51.096;17.190;2023-02-10T11:28:05;102098.26;;;3.11;75.55
41706;BME280;27385;51.096;17.190;2023-02-10T11:30:38;102096.77;;;3.12;75.52
41706;BME280;27385;51.096;17.190;2023-02-10T11:33:20;102089.77;;;3.14;75.70
41706;BME280;27385;51.096;17.190;2023-02-10T11:35:59;102094.05;;;3.17;75.41
41706;BME280;27385;51.096;17.190;2023-02-10T11:38:33;102087.12;;;3.20;75.34
41706;BME280;27385;51.096;17.190;2023-02-10T11:41:07;102087.60;;;3.20;75.32
41706;BME280;27385;51.096;17.190;2023-02-10T11:43:43;102090.05;;;3.23;75.24
41706;BME280;27385;51.096;17.190;2023-02-10T11:46:24;102084.88;;;3.25;75.66
41706;BME280;27385;51.096;17.190;2023-02-10T11:48:57;102091.70;;;3.31;75.58
41706;BME280;27385;51.096;17.190;2023-02-10T11:51:29;102096.84;;;3.35;75.33
41706;BME280;27385;51.096;17.190;2023-02-10T11:54:01;102093.55;;;3.38;75.29
41706;BME280;27385;51.096;17.190;2023-02-10T11:56:40;102091.91;;;3.41;74.85
41706;BME280;27385;51.096;17.190;2023-02-10T11:59:33;102087.89;;;3.41;74.92
41706;BME280;27385;51.096;17.190;2023-02-10T12:02:11;102086.40;;;3.42;75.00
41706;BME280;27385;51.096;17.190;2023-02-10T12:05:06;102088.14;;;3.44;74.86
41706;BME280;27385;51.096;17.190;2023-02-10T12:07:53;102089.96;;;3.46;74.88
41706;BME280;27385;51.096;17.190;2023-02-10T12:10:29;102091.48;;;3.48;74.86
41706;BME280;27385;51.096;17.190;2023-02-10T12:13:09;102090.79;;;3.51;74.90
41706;BME280;27385;51.096;17.190;2023-02-10T12:15:52;102092.78;;;3.55;74.98
41706;BME280;27385;51.096;17.190;2023-02-10T12:18:38;102087.52;;;3.59;74.92
41706;BME280;27385;51.096;17.190;2023-02-10T12:21:28;102091.31;;;3.62;75.17
41706;BME280;27385;51.096;17.190;2023-02-10T12:24:20;102095.45;;;3.69;75.07
41706;BME280;27385;51.096;17.190;2023-02-10T12:27:00;102088.77;;;3.72;74.92
41706;BME280;27385;51.096;17.190;2023-02-10T12:29:48;102095.64;;;3.75;74.72
41706;BME280;27385;51.096;17.190;2023-02-10T12:32:29;102098.20;;;3.77;74.66
41706;BME280;27385;51.096;17.190;2023-02-10T12:35:18;102101.02;;;3.79;74.59
41706;BME280;27385;51.096;17.190;2023-02-10T12:38:02;102102.60;;;3.79;74.14
41706;BME280;27385;51.096;17.190;2023-02-10T12:40:50;102104.96;;;3.75;73.96
41706;BME280;27385;51.096;17.190;2023-02-10T12:43:53;102102.51;;;3.73;74.16
41706;BME280;27385;51.096;17.190;2023-02-10T12:46:36;102100.92;;;3.74;74.40
41706;BME280;27385;51.096;17.190;2023-02-10T12:49:21;102102.42;;;3.74;74.06
41706;BME280;27385;51.096;17.190;2023-02-10T12:52:04;102103.12;;;3.71;73.84
41706;BME280;27385;51.096;17.190;2023-02-10T12:54:46;102106.81;;;3.67;73.87
41706;BME280;27385;51.096;17.190;2023-02-10T12:57:24;102102.70;;;3.65;74.19
41706;BME280;27385;51.096;17.190;2023-02-10T13:00:02;102097.97;;;3.65;74.11
41706;BME280;27385;51.096;17.190;2023-02-10T13:02:40;102095.11;;;3.66;74.13
41706;BME280;27385;51.096;17.190;2023-02-10T13:05:18;102099.63;;;3.66;74.20
41706;BME280;27385;51.096;17.190;2023-02-10T13:07:53;102097.89;;;3.67;74.02
41706;BME280;27385;51.096;17.190;2023-02-10T13:10:33;102093.46;;;3.66;74.05
41706;BME280;27385;51.096;17.190;2023-02-10T13:13:06;102095.60;;;3.64;74.25
41706;BME280;27385;51.096;17.190;2023-02-10T13:15:43;102094.23;;;3.62;74.45
41706;BME280;27385;51.096;17.190;2023-02-10T13:18:20;102093.92;;;3.64;74.48
41706;BME280;27385;51.096;17.190;2023-02-10T13:21:00;102094.89;;;3.67;74.76